Time;durP1;ratioP1;P1;durP2;ratioP2;P2;SDS_P1;SDS_P2;PMS_P1;PMS_P2;Temp;Humidity;BMP_temperature;BMP_pressure;BME280_temperature;BME280_humidity;BME280_pressure;Samples;Min_cycle;Max_cycle;Signal;HPM_P1;HPM_P2
2022/05/17 00:00:09;;;;;;;13.18;8.43;;;16.50;99.90;;;;;;5029382;28;20045;-66
2022/05/17 00:02:40;;;;;;;10.73;7.70;;;16.50;99.90;;;;;;5010283;28;20412;-65
2022/05/17 00:05:08;;;;;;;11.68;8.50;;;16.50;99.90;;;;;;5018500;28;20049;-65
2022/05/17 00:07:36;;;;;;;14.77;8.80;;;16.60;99.90;;;;;;5015322;28;20926;-65
2022/05/17 00:10:04;;;;;;;12.07;8.05;;;16.50;99.90;;;;;;5018704;28;20663;-65
2022/05/17 00:12:33;;;;;;;13.02;8.70;;;16.50;99.90;;;;;;5023797;28;20066;-66
2022/05/17 00:15:01;;;;;;;11.65;8.05;;;16.50;99.90;;;;;;5013871;28;20522;-65
2022/05/17 00:17:28;;;;;;;13.77;8.38;;;16.50;99.90;;;;;;5029551;28;20550;-65
2022/05/17 00:19:56;;;;;;;13.75;7.78;;;16.50;99.90;;;;;;5032953;28;20053;-65
2022/05/17 00:22:23;;;;;;;12.02;7.85;;;16.50;99.90;;;;;;5029559;28;20127;-65
2022/05/17 00:24:50;;;;;;;14.43;8.48;;;16.50;99.90;;;;;;5028862;28;20523;-65
2022/05/17 00:27:17;;;;;;;12.02;7.70;;;16.50;99.90;;;;;;5029573;28;20077;-65
2022/05/17 00:29:45;;;;;;;10.32;7.72;;;16.60;99.90;;;;;;5023409;28;20472;-65
2022/05/17 00:32:12;;;;;;;13.18;7.78;;;16.50;99.90;;;;;;5029968;28;20420;-65
2022/05/17 00:34:39;;;;;;;15.23;8.50;;;16.50;99.90;;;;;;5018432;28;20068;-65
2022/05/17 00:37:08;;;;;;;10.93;8.65;;;16.60;99.90;;;;;;5029593;28;20081;-65
2022/05/17 00:39:35;;;;;;;9.98;6.90;;;16.50;99.90;;;;;;5029289;28;20467;-65
2022/05/17 00:42:03;;;;;;;12.07;7.70;;;16.50;99.90;;;;;;5029681;28;20128;-65
2022/05/17 00:44:42;;;;;;;12.52;7.78;;;16.50;99.90;;;;;;5029026;28;20069;-65
2022/05/17 00:47:25;;;;;;;10.93;7.40;;;16.60;99.90;;;;;;5029111;28;20046;-65
2022/05/17 00:50:11;;;;;;;12.15;7.43;;;16.60;99.90;;;;;;5029475;28;20037;-65
2022/05/17 00:52:49;;;;;;;11.40;7.32;;;16.60;99.90;;;;;;5029359;28;20045;-65
2022/05/17 00:55:34;;;;;;;12.05;8.07;;;16.60;99.90;;;;;;5029286;28;20480;-65
2022/05/17 00:58:13;;;;;;;11.05;7.43;;;16.60;99.90;;;;;;5024062;28;20128;-65
2022/05/17 01:01:09;;;;;;;10.80;7.38;;;16.60;99.90;;;;;;5027939;28;20044;-65
2022/05/17 01:04:03;;;;;;;13.25;7.45;;;16.60;99.90;;;;;;5022861;28;20535;-64
2022/05/17 01:06:35;;;;;;;12.88;7.93;;;16.60;99.90;;;;;;5027883;28;20425;-65
2022/05/17 01:09:03;;;;;;;13.35;7.55;;;16.60;99.90;;;;;;5025884;28;20436;-64
2022/05/17 01:11:31;;;;;;;10.63;7.50;;;16.60;99.90;;;;;;5029166;28;20140;-64
2022/05/17 01:16:45;;;;;;;14.73;8.40;;;16.60;99.90;;;;;;5008918;28;20573;-64
2022/05/17 01:19:15;;;;;;;11.50;7.45;;;16.60;99.90;;;;;;5026667;28;20416;-64
2022/05/17 01:21:43;;;;;;;12.82;7.80;;;16.60;99.90;;;;;;5020145;28;20050;-64
2022/05/17 01:24:10;;;;;;;13.75;7.55;;;16.60;99.90;;;;;;5028144;28;20053;-65
2022/05/17 01:26:42;;;;;;;15.32;9.30;;;16.60;99.90;;;;;;5029013;28;20167;-64
2022/05/17 01:29:11;;;;;;;13.25;8.18;;;16.50;99.90;;;;;;5028542;28;20053;-65
2022/05/17 01:31:39;;;;;;;12.25;7.80;;;16.60;99.90;;;;;;5043742;28;20056;-65
2022/05/17 01:34:11;;;;;;;11.63;7.35;;;16.60;99.90;;;;;;5026116;28;20049;-66
2022/05/17 01:36:40;;;;;;;13.93;7.45;;;16.60;99.90;;;;;;5027206;28;20055;-65
2022/05/17 01:39:09;;;;;;;12.30;7.50;;;16.60;99.90;;;;;;5026237;28;20052;-65
2022/05/17 01:41:36;;;;;;;13.82;8.13;;;16.60;99.90;;;;;;5025779;28;20041;-65
2022/05/17 01:44:04;;;;;;;11.60;8.32;;;16.60;99.90;;;;;;5042288;28;20501;-65
2022/05/17 01:46:31;;;;;;;13.13;7.10;;;16.60;99.90;;;;;;5027825;28;20041;-64
2022/05/17 01:48:58;;;;;;;12.68;7.75;;;16.60;99.90;;;;;;5028123;28;20582;-65
2022/05/17 01:51:26;;;;;;;16.50;7.72;;;16.50;99.90;;;;;;5026355;28;20068;-64
2022/05/17 01:53:53;;;;;;;8.98;6.85;;;16.50;99.90;;;;;;5026535;28;20504;-64
2022/05/17 01:56:21;;;;;;;13.82;8.25;;;16.50;99.90;;;;;;5025756;28;20068;-65
2022/05/17 01:58:48;;;;;;;10.68;7.68;;;16.60;99.90;;;;;;5027728;28;20037;-65
2022/05/17 02:01:15;;;;;;;11.52;7.47;;;16.60;99.90;;;;;;5026953;28;20045;-64
2022/05/17 02:03:43;;;;;;;13.60;7.63;;;16.60;99.90;;;;;;5027740;28;20141;-65
2022/05/17 02:06:10;;;;;;;14.80;8.57;;;16.60;99.90;;;;;;5027187;28;20382;-66
2022/05/17 02:08:37;;;;;;;11.40;8.68;;;16.60;99.90;;;;;;5027079;28;20049;-65
2022/05/17 02:11:05;;;;;;;16.00;9.10;;;16.50;99.90;;;;;;5027082;28;20046;-64
2022/05/17 02:13:33;;;;;;;14.32;8.90;;;16.50;99.90;;;;;;5026967;28;20060;-64
2022/05/17 02:16:03;;;;;;;14.75;8.95;;;16.50;99.90;;;;;;5025291;28;20045;-64
2022/05/17 02:18:31;;;;;;;16.27;10.73;;;16.50;99.90;;;;;;5026695;28;20064;-64
2022/05/17 02:20:58;;;;;;;15.65;10.45;;;16.40;99.90;;;;;;5027521;28;20049;-64
2022/05/17 02:23:26;;;;;;;15.70;10.70;;;16.40;99.90;;;;;;5027627;28;20057;-65
2022/05/17 02:25:54;;;;;;;16.67;10.23;;;16.30;99.90;;;;;;5026586;28;20042;-65
2022/05/17 02:28:21;;;;;;;15.43;10.45;;;16.30;99.90;;;;;;5025281;28;20046;-64
2022/05/17 02:30:49;;;;;;;17.65;11.18;;;16.30;99.90;;;;;;5027190;28;20046;-64
2022/05/17 02:33:17;;;;;;;15.88;10.82;;;16.30;99.90;;;;;;5026087;28;20053;-64
2022/05/17 02:35:44;;;;;;;16.10;10.93;;;16.30;99.90;;;;;;5025362;28;20136;-64
2022/05/17 02:38:12;;;;;;;15.95;11.20;;;16.30;99.90;;;;;;5026439;28;20050;-64
2022/05/17 02:40:39;;;;;;;18.35;11.55;;;16.30;99.90;;;;;;5026505;28;20073;-64
2022/05/17 02:43:11;;;;;;;16.70;11.95;;;16.30;99.90;;;;;;5026643;28;20156;-64
2022/05/17 02:45:39;;;;;;;18.27;11.57;;;16.30;99.90;;;;;;5026284;28;20044;-65
2022/05/17 02:48:06;;;;;;;18.73;11.38;;;16.20;99.90;;;;;;5027769;28;20076;-64
2022/05/17 02:50:34;;;;;;;17.92;11.77;;;16.10;99.90;;;;;;5029083;28;20037;-64
2022/05/17 02:53:01;;;;;;;18.25;11.85;;;16.00;99.90;;;;;;5030714;28;20471;-64
2022/05/17 02:55:29;;;;;;;17.40;12.50;;;16.00;99.90;;;;;;5028575;28;20499;-64
2022/05/17 02:57:56;;;;;;;22.85;12.95;;;16.00;99.90;;;;;;5030462;28;20093;-64
2022/05/17 03:00:25;;;;;;;18.67;12.10;;;16.00;99.90;;;;;;5031960;28;20539;-64
2022/05/17 03:02:55;;;;;;;21.43;12.33;;;16.00;99.90;;;;;;5038541;28;20049;-64
2022/05/17 03:05:22;;;;;;;20.40;11.68;;;16.10;99.90;;;;;;5030076;28;20500;-64
2022/05/17 03:07:50;;;;;;;18.70;12.00;;;16.10;99.90;;;;;;5030412;28;20861;-64
2022/05/17 03:10:20;;;;;;;21.38;13.30;;;16.20;99.90;;;;;;5027880;28;20038;-64
2022/05/17 03:12:47;;;;;;;20.10;12.15;;;16.20;99.90;;;;;;5030491;28;20045;-64
2022/05/17 03:15:20;;;;;;;19.02;12.80;;;16.20;99.90;;;;;;5030394;28;20592;-64
2022/05/17 03:17:48;;;;;;;19.90;12.80;;;16.20;99.90;;;;;;5036173;28;20127;-65
2022/05/17 03:20:16;;;;;;;21.55;13.45;;;16.10;99.90;;;;;;5031718;28;20056;-64
2022/05/17 03:22:43;;;;;;;18.45;12.80;;;16.10;99.90;;;;;;5029748;28;20034;-64
2022/05/17 03:25:11;;;;;;;22.15;12.70;;;16.10;99.90;;;;;;5028001;28;20049;-64
2022/05/17 03:27:54;;;;;;;20.85;12.95;;;16.00;99.90;;;;;;5027870;28;20119;-64
2022/05/17 03:30:22;;;;;;;20.20;13.60;;;15.90;99.90;;;;;;5028434;28;20171;-66
2022/05/17 03:32:50;;;;;;;18.55;13.95;;;15.90;99.90;;;;;;5030143;28;20163;-65
2022/05/17 03:35:18;;;;;;;21.85;14.32;;;15.80;99.90;;;;;;5026233;28;20052;-64
2022/05/17 03:37:46;;;;;;;21.77;14.23;;;15.80;99.90;;;;;;5028793;28;20042;-65
2022/05/17 03:40:13;;;;;;;19.30;14.27;;;15.80;99.90;;;;;;5028824;28;20076;-64
2022/05/17 03:42:41;;;;;;;24.08;14.45;;;15.80;99.90;;;;;;5024476;28;20516;-65
2022/05/17 03:45:09;;;;;;;22.65;13.25;;;15.80;99.90;;;;;;5025879;28;20048;-64
2022/05/17 03:47:36;;;;;;;20.85;13.55;;;15.80;99.90;;;;;;5025875;28;20473;-64
2022/05/17 03:50:05;;;;;;;23.02;13.52;;;15.70;99.90;;;;;;5020431;28;20041;-64
2022/05/17 03:52:32;;;;;;;19.25;13.52;;;15.80;99.90;;;;;;5028247;28;20056;-65
2022/05/17 03:55:01;;;;;;;19.40;13.90;;;15.80;99.90;;;;;;5026689;28;20492;-64
2022/05/17 03:57:28;;;;;;;21.90;13.82;;;15.80;99.90;;;;;;5029245;28;20068;-65
2022/05/17 03:59:56;;;;;;;20.23;14.30;;;15.80;99.90;;;;;;5030146;28;20448;-64
2022/05/17 04:02:25;;;;;;;19.70;14.15;;;15.80;99.90;;;;;;5029271;28;20051;-64
2022/05/17 04:04:56;;;;;;;19.65;14.98;;;15.80;99.90;;;;;;5025444;28;20236;-63
2022/05/17 04:07:23;;;;;;;19.15;14.55;;;15.70;99.90;;;;;;5020629;28;20049;-65
2022/05/17 04:09:50;;;;;;;23.58;14.80;;;15.70;99.90;;;;;;5029271;28;20132;-65
2022/05/17 04:12:18;;;;;;;20.75;14.70;;;15.70;99.90;;;;;;5028677;28;20042;-66
2022/05/17 04:14:45;;;;;;;23.17;15.68;;;15.70;99.90;;;;;;5030153;28;20413;-64
2022/05/17 04:17:13;;;;;;;22.48;14.40;;;15.70;99.90;;;;;;5029388;28;20123;-65
2022/05/17 04:19:40;;;;;;;22.73;15.77;;;15.70;99.90;;;;;;5021069;28;20045;-64
2022/05/17 04:22:09;;;;;;;19.02;14.50;;;15.70;99.90;;;;;;5029674;28;20045;-63
2022/05/17 04:24:41;;;;;;;21.20;14.93;;;15.70;99.90;;;;;;5030445;28;20439;-65
2022/05/17 04:27:10;;;;;;;21.40;14.77;;;15.70;99.90;;;;;;5030238;28;20044;-65
2022/05/17 04:29:38;;;;;;;22.98;15.10;;;15.70;99.90;;;;;;5030021;28;20045;-65
2022/05/17 04:32:06;;;;;;;20.90;14.55;;;15.80;99.90;;;;;;5030330;28;20140;-64
2022/05/17 04:34:34;;;;;;;23.67;16.20;;;15.80;99.90;;;;;;5029649;28;20148;-65
2022/05/17 04:37:01;;;;;;;22.70;14.63;;;15.80;99.90;;;;;;5044324;28;20060;-64
2022/05/17 04:39:28;;;;;;;20.83;15.10;;;15.90;99.90;;;;;;5028552;28;20046;-63
2022/05/17 04:41:56;;;;;;;22.17;16.30;;;15.80;99.90;;;;;;5027007;28;20050;-64
2022/05/17 04:44:23;;;;;;;19.25;13.90;;;15.70;99.90;;;;;;5042807;28;20048;-63
2022/05/17 04:46:51;;;;;;;27.45;15.77;;;15.80;99.90;;;;;;5026898;28;20033;-64
2022/05/17 04:49:19;;;;;;;21.23;15.02;;;15.80;99.90;;;;;;5027660;28;20053;-64
2022/05/17 04:51:51;;;;;;;23.02;15.18;;;15.90;99.90;;;;;;5026405;28;20144;-64
2022/05/17 04:54:20;;;;;;;24.75;15.80;;;15.80;99.90;;;;;;5029228;28;20504;-64
2022/05/17 04:56:47;;;;;;;24.88;16.55;;;15.90;99.90;;;;;;5023417;28;20606;-64
2022/05/17 04:59:21;;;;;;;25.10;15.77;;;15.80;99.90;;;;;;5027558;28;20418;-64
2022/05/17 05:01:49;;;;;;;22.50;15.25;;;15.90;99.90;;;;;;5028956;28;20132;-64
2022/05/17 05:04:17;;;;;;;26.30;15.82;;;16.00;99.90;;;;;;5029763;28;20469;-65
2022/05/17 05:06:44;;;;;;;22.13;15.07;;;16.10;99.90;;;;;;5028363;28;20041;-65
2022/05/17 05:09:11;;;;;;;22.38;14.48;;;16.10;99.90;;;;;;5029030;28;20473;-64
2022/05/17 05:11:39;;;;;;;26.95;15.45;;;16.10;99.90;;;;;;5028230;28;20315;-65
2022/05/17 05:14:07;;;;;;;24.38;15.15;;;16.10;99.90;;;;;;5027319;28;20049;-64
2022/05/17 05:16:37;;;;;;;25.02;15.73;;;16.20;99.90;;;;;;5028908;28;20044;-65
2022/05/17 05:19:04;;;;;;;21.02;15.05;;;16.20;99.90;;;;;;5044006;28;20045;-65
2022/05/17 05:21:32;;;;;;;26.83;17.85;;;16.20;99.90;;;;;;5023531;28;20449;-65
2022/05/17 05:24:00;;;;;;;25.65;17.05;;;16.10;99.90;;;;;;5024816;28;20056;-65
2022/05/17 05:26:27;;;;;;;21.25;16.30;;;16.20;99.90;;;;;;5016946;28;20116;-65
2022/05/17 05:28:54;;;;;;;26.60;16.38;;;16.20;99.90;;;;;;5028013;28;20135;-65
2022/05/17 05:31:22;;;;;;;24.15;16.02;;;16.40;99.90;;;;;;5023380;28;20117;-65
2022/05/17 05:33:49;;;;;;;19.70;14.48;;;16.40;99.90;;;;;;5025206;28;20141;-65
2022/05/17 05:36:17;;;;;;;22.13;15.90;;;16.60;99.90;;;;;;5027743;28;20128;-64
2022/05/17 05:38:44;;;;;;;21.35;15.55;;;16.80;99.90;;;;;;5028118;28;20928;-65
2022/05/17 05:41:13;;;;;;;21.55;14.43;;;17.00;99.90;;;;;;5021932;28;20060;-65
2022/05/17 05:43:41;;;;;;;21.38;15.00;;;17.10;99.90;;;;;;5027084;28;20041;-65
2022/05/17 05:46:09;;;;;;;23.15;15.75;;;16.90;99.90;;;;;;5022195;28;20100;-65
2022/05/17 05:48:36;;;;;;;25.27;14.55;;;16.90;99.90;;;;;;5028227;28;20123;-63
2022/05/17 05:51:07;;;;;;;21.17;15.60;;;16.90;99.90;;;;;;5026437;28;20057;-64
2022/05/17 05:53:34;;;;;;;23.75;14.48;;;17.00;99.90;;;;;;5028679;28;20037;-65
2022/05/17 05:56:01;;;;;;;23.88;14.45;;;16.90;99.90;;;;;;5029004;28;20512;-64
2022/05/17 05:58:34;;;;;;;24.58;16.30;;;16.80;99.90;;;;;;5027899;28;20037;-65
2022/05/17 06:01:02;;;;;;;23.85;14.85;;;16.80;99.90;;;;;;5025618;28;20046;-64
2022/05/17 06:03:29;;;;;;;23.05;16.05;;;16.90;99.90;;;;;;5026802;28;20042;-66
2022/05/17 06:05:57;;;;;;;23.23;16.27;;;17.10;99.90;;;;;;5021473;28;20718;-64
2022/05/17 06:08:25;;;;;;;19.38;14.48;;;17.20;99.90;;;;;;5025432;28;20048;-68
2022/05/17 06:10:52;;;;;;;22.63;14.75;;;17.30;99.90;;;;;;5025718;28;20041;-67
2022/05/17 06:13:20;;;;;;;25.58;15.18;;;17.30;99.90;;;;;;5026742;28;20751;-67
2022/05/17 06:15:50;;;;;;;23.55;16.38;;;17.40;99.90;;;;;;5027788;28;20079;-67
2022/05/17 06:18:18;;;;;;;22.80;15.38;;;17.60;99.90;;;;;;5032967;28;20099;-68
2022/05/17 06:20:54;;;;;;;20.27;14.75;;;17.70;99.90;;;;;;5030169;28;20049;-67
2022/05/17 06:23:22;;;;;;;19.08;14.90;;;17.70;99.90;;;;;;5027477;28;20049;-67
2022/05/17 06:25:50;;;;;;;20.52;16.48;;;17.90;99.90;;;;;;5028941;28;20052;-67
2022/05/17 06:28:18;;;;;;;24.77;16.98;;;18.00;99.90;;;;;;5028146;28;20052;-67
2022/05/17 06:30:45;;;;;;;20.50;15.40;;;18.10;99.90;;;;;;5024579;28;20061;-66
2022/05/17 06:33:14;;;;;;;25.90;18.73;;;18.20;99.90;;;;;;5028098;28;20053;-67
2022/05/17 06:35:44;;;;;;;21.88;16.92;;;18.10;99.90;;;;;;5026309;28;20053;-67
2022/05/17 06:38:12;;;;;;;27.90;18.08;;;18.10;99.90;;;;;;5025309;28;20132;-66
2022/05/17 06:40:39;;;;;;;26.13;16.70;;;18.30;99.90;;;;;;5027798;28;20564;-67
2022/05/17 06:43:07;;;;;;;22.65;15.90;;;18.50;99.90;;;;;;5026497;28;20041;-67
2022/05/17 06:45:35;;;;;;;30.58;17.20;;;18.50;99.90;;;;;;5028415;28;20041;-67
2022/05/17 06:48:03;;;;;;;24.98;17.92;;;18.70;99.90;;;;;;5043584;28;20157;-67
2022/05/17 06:50:31;;;;;;;23.45;17.48;;;18.70;99.90;;;;;;5028034;28;20041;-67
2022/05/17 06:52:59;;;;;;;29.05;17.08;;;18.70;99.90;;;;;;5028008;28;20580;-67
2022/05/17 06:55:27;;;;;;;24.42;17.75;;;18.80;99.90;;;;;;5027332;28;20367;-68
2022/05/17 06:57:55;;;;;;;25.33;17.50;;;18.80;99.90;;;;;;5027372;28;20128;-66
2022/05/17 07:00:23;;;;;;;24.42;18.33;;;18.90;99.90;;;;;;5028418;28;20095;-66
2022/05/17 07:02:50;;;;;;;26.30;16.95;;;19.00;99.90;;;;;;5032156;28;20351;-68
2022/05/17 07:05:17;;;;;;;27.00;18.17;;;19.00;99.90;;;;;;5026241;28;20045;-67
2022/05/17 07:07:45;;;;;;;25.30;17.48;;;19.00;99.90;;;;;;5028110;28;20128;-67
2022/05/17 07:13:08;;;;;;;27.60;17.25;;;19.40;99.90;;;;;;5027393;28;20037;-66
2022/05/17 07:15:43;;;;;;;26.10;16.77;;;19.20;99.90;;;;;;5026834;28;20436;-67
2022/05/17 07:18:13;;;;;;;24.90;16.95;;;19.40;99.90;;;;;;5026828;28;20053;-68
2022/05/17 07:20:40;;;;;;;24.67;16.23;;;19.50;99.90;;;;;;5030661;28;20069;-67
2022/05/17 07:23:09;;;;;;;27.05;15.55;;;19.80;99.90;;;;;;5027557;28;20420;-68
2022/05/17 07:25:39;;;;;;;21.77;15.95;;;20.10;99.90;;;;;;5028481;28;20045;-67
2022/05/17 07:28:12;;;;;;;20.98;13.82;;;20.30;99.90;;;;;;5028604;28;20046;-67
2022/05/17 07:30:40;;;;;;;21.83;14.95;;;20.50;99.90;;;;;;5027215;28;20135;-68
2022/05/17 07:33:07;;;;;;;25.17;15.25;;;20.70;99.90;;;;;;5027311;28;20459;-67
2022/05/17 07:35:35;;;;;;;23.27;15.02;;;20.70;99.90;;;;;;5030230;28;20526;-65
2022/05/17 07:38:03;;;;;;;23.02;14.55;;;20.70;99.90;;;;;;5031388;28;20488;-67
2022/05/17 07:40:31;;;;;;;21.17;14.82;;;20.90;99.90;;;;;;5029177;28;20365;-68
2022/05/17 07:43:00;;;;;;;21.15;14.77;;;21.10;99.90;;;;;;5032289;28;20079;-67
2022/05/17 07:45:28;;;;;;;22.58;15.23;;;21.00;99.90;;;;;;5029993;28;20037;-67
2022/05/17 07:47:55;;;;;;;19.35;14.57;;;21.10;99.90;;;;;;5031286;28;20042;-68
2022/05/17 07:50:22;;;;;;;17.98;12.63;;;21.10;99.90;;;;;;5029918;28;20172;-69
2022/05/17 07:52:49;;;;;;;21.35;15.13;;;21.20;99.90;;;;;;5027802;28;20045;-67
2022/05/17 07:55:17;;;;;;;21.80;14.48;;;21.20;99.90;;;;;;5028880;28;20077;-67
2022/05/17 07:57:45;;;;;;;20.25;13.48;;;21.10;99.90;;;;;;5029468;28;20179;-67
2022/05/17 08:00:12;;;;;;;20.50;13.75;;;21.10;99.90;;;;;;5029228;28;20080;-67
2022/05/17 08:02:40;;;;;;;20.88;13.75;;;21.20;99.90;;;;;;5030235;28;20068;-70
2022/05/17 08:05:09;;;;;;;16.85;12.82;;;21.30;99.90;;;;;;5027620;28;20123;-67
2022/05/17 08:07:38;;;;;;;23.25;13.02;;;21.00;99.90;;;;;;5020100;28;20489;-68
2022/05/17 08:10:06;;;;;;;19.83;13.80;;;20.90;99.90;;;;;;5027707;28;20582;-68
2022/05/17 08:12:33;;;;;;;19.98;14.18;;;20.40;99.90;;;;;;5018522;28;20415;-68
2022/05/17 08:15:01;;;;;;;18.88;13.55;;;20.00;99.90;;;;;;5032128;28;20159;-66
2022/05/17 08:17:29;;;;;;;19.50;13.80;;;19.90;99.90;;;;;;5031419;28;20151;-67
2022/05/17 08:19:56;;;;;;;17.67;13.55;;;20.00;99.90;;;;;;5035565;28;20539;-68
2022/05/17 08:22:23;;;;;;;17.95;12.90;;;20.00;99.90;;;;;;5030663;28;20049;-67
2022/05/17 08:27:36;;;;;;;16.30;10.65;;;20.20;99.90;;;;;;5032384;28;20099;-68
2022/05/17 08:30:14;;;;;;;15.65;10.75;;;20.50;99.90;;;;;;5032351;28;20049;-66
2022/05/17 08:36:00;;;;;;;18.08;10.95;;;20.50;99.90;;;;;;5048806;28;20063;-69
2022/05/17 08:38:32;;;;;;;16.45;10.63;;;20.70;99.90;;;;;;5028669;28;20508;-67
2022/05/17 08:41:42;;;;;;;21.77;12.10;;;20.90;99.90;;;;;;5029599;28;20041;-67
2022/05/17 08:44:17;;;;;;;18.40;12.00;;;21.10;99.90;;;;;;5031149;28;20069;-67
2022/05/17 08:46:51;;;;;;;19.33;11.80;;;21.30;99.90;;;;;;5030109;28;20144;-68
2022/05/17 08:49:54;;;;;;;19.13;12.18;;;21.20;99.90;;;;;;5027603;28;20110;-67
2022/05/17 08:52:24;;;;;;;18.35;10.82;;;21.30;99.90;;;;;;5030881;28;20499;-65
2022/05/17 08:54:59;;;;;;;19.13;11.40;;;21.30;99.90;;;;;;5033528;28;20045;-65
2022/05/17 08:57:47;;;;;;;18.63;11.52;;;21.40;99.90;;;;;;5023185;28;20050;-65
2022/05/17 09:00:21;;;;;;;17.88;12.13;;;21.80;99.90;;;;;;5030084;28;20068;-65
2022/05/17 09:03:09;;;;;;;15.73;10.65;;;22.10;99.90;;;;;;5033600;28;20676;-66
2022/05/17 09:05:48;;;;;;;16.02;10.98;;;22.70;99.90;;;;;;5029002;28;20060;-67
2022/05/17 09:08:38;;;;;;;14.73;10.57;;;23.10;99.90;;;;;;5032601;28;20562;-66
2022/05/17 09:11:10;;;;;;;18.23;12.20;;;23.10;99.90;;;;;;5030539;28;20533;-67
2022/05/17 09:13:47;;;;;;;;;;;22.80;99.90;;;;;;5028637;28;20446;-67
2022/05/17 09:16:40;;;;;;;18.02;11.90;;;22.70;99.90;;;;;;5026128;28;20404;-66
2022/05/17 09:19:08;;;;;;;16.83;13.40;;;22.70;99.90;;;;;;5034340;28;20465;-68
2022/05/17 09:21:39;;;;;;;20.10;13.75;;;22.30;99.90;;;;;;5033345;28;20553;-67
2022/05/17 09:24:13;;;;;;;20.85;13.20;;;22.10;99.90;;;;;;5033048;28;20049;-69
2022/05/17 09:26:53;;;;;;;19.95;11.18;;;22.00;99.90;;;;;;5032044;28;20037;-67
2022/05/17 09:29:33;;;;;;;15.43;10.75;;;22.00;99.90;;;;;;5033620;28;20124;-67
2022/05/17 09:32:06;;;;;;;11.70;9.15;;;22.10;99.90;;;;;;5034520;28;20041;-66
2022/05/17 09:34:37;;;;;;;14.48;10.95;;;22.30;99.90;;;;;;5033974;28;20041;-66
2022/05/17 09:37:14;;;;;;;14.60;8.05;;;22.40;99.90;;;;;;5032709;28;20065;-66
2022/05/17 09:39:48;;;;;;;13.93;9.23;;;22.70;99.90;;;;;;5028147;28;20077;-66
2022/05/17 09:42:31;;;;;;;13.10;8.02;;;23.20;99.90;;;;;;5041694;28;20393;-65
2022/05/17 09:45:07;;;;;;;12.55;8.45;;;23.60;99.90;;;;;;5029666;28;20049;-67
2022/05/17 09:47:42;;;;;;;18.83;10.32;;;23.80;99.90;;;;;;5029110;28;20069;-66
2022/05/17 09:53:04;;;;;;;12.52;8.07;;;23.20;99.90;;;;;;5024864;28;20461;-65
2022/05/17 09:55:33;;;;;;;11.40;7.55;;;22.90;99.90;;;;;;5023700;28;20129;-64
2022/05/17 09:58:06;;;;;;;11.65;7.65;;;22.90;99.90;;;;;;5022376;28;20127;-65
2022/05/17 10:00:42;;;;;;;16.17;8.57;;;22.60;99.90;;;;;;5014257;28;20512;-66
2022/05/17 10:03:15;;;;;;;11.95;8.32;;;22.50;99.90;;;;;;5019523;28;20628;-65
2022/05/17 10:05:55;;;;;;;11.13;7.65;;;22.80;99.90;;;;;;5025895;28;20042;-67
2022/05/17 10:08:23;;;;;;;14.05;8.00;;;23.00;99.90;;;;;;5027276;28;20037;-65
2022/05/17 10:11:12;;;;;;;11.88;6.95;;;23.30;99.90;;;;;;5029356;28;20116;-65
2022/05/17 10:14:27;;;;;;;14.85;8.23;;;23.50;99.90;;;;;;5022504;28;20041;-65
2022/05/17 10:17:02;;;;;;;11.13;8.00;;;23.20;99.90;;;;;;5005463;28;20092;-65
2022/05/17 10:19:50;;;;;;;11.73;6.45;;;23.00;99.90;;;;;;5006463;28;20053;-67
2022/05/17 10:22:44;;;;;;;12.20;7.40;;;22.40;99.90;;;;;;5005383;28;20062;-66
2022/05/17 10:25:26;;;;;;;12.15;7.07;;;22.60;99.90;;;;;;5002094;28;20046;-65
2022/05/17 10:27:58;;;;;;;;;;;22.80;99.90;;;;;;4998250;28;20041;-67
2022/05/17 10:30:37;;;;;;;12.02;8.40;;;23.20;99.90;;;;;;5005554;28;20421;-63
2022/05/17 10:33:10;;;;;;;14.75;8.02;;;23.50;99.90;;;;;;5005778;28;20501;-63
2022/05/17 10:35:42;;;;;;;13.95;9.65;;;23.60;99.90;;;;;;5007355;28;20057;-63
2022/05/17 10:38:12;;;;;;;;;;;23.80;99.90;;;;;;4998695;28;20513;-66
2022/05/17 10:40:43;;;;;;;14.52;7.82;;;23.70;99.90;;;;;;4998501;28;19928;-66
2022/05/17 10:43:26;;;;;;;11.50;6.70;;;23.40;99.90;;;;;;5006755;28;20117;-64
2022/05/17 10:46:04;;;;;;;15.23;6.63;;;23.30;99.90;;;;;;4998693;28;20038;-65
2022/05/17 10:48:57;;;;;;;11.48;5.78;;;23.50;99.90;;;;;;5028632;28;20512;-65
2022/05/17 10:51:27;;;;;;;7.68;4.95;;;23.50;99.90;;;;;;5025727;28;20044;-66
2022/05/17 10:54:24;;;;;;;8.48;5.10;;;23.90;99.90;;;;;;5017662;28;20342;-64
2022/05/17 10:57:19;;;;;;;9.95;5.43;;;24.10;99.90;;;;;;5019710;28;20083;-63
2022/05/17 11:00:09;;;;;;;10.57;6.18;;;24.40;99.90;;;;;;5020664;28;20034;-66
2022/05/17 11:03:25;;;;;;;9.25;5.28;;;24.20;99.90;;;;;;5017125;28;20540;-64
2022/05/17 11:06:17;;;;;;;7.30;5.00;;;24.40;99.90;;;;;;5018183;28;20562;-64
2022/05/17 11:09:00;;;;;;;9.90;5.70;;;25.00;99.90;;;;;;5028626;28;20476;-66
2022/05/17 11:11:57;;;;;;;9.57;5.43;;;24.90;99.90;;;;;;5009788;28;20080;-66
2022/05/17 11:14:36;;;;;;;11.20;6.40;;;24.40;99.90;;;;;;5017923;28;20049;-65
2022/05/17 11:17:18;;;;;;;8.45;5.35;;;24.50;99.90;;;;;;5031555;28;20046;-66
2022/05/17 11:20:05;;;;;;;8.63;5.25;;;24.60;99.90;;;;;;5031099;28;20053;-66
2022/05/17 11:22:33;;;;;;;9.07;4.78;;;25.10;99.90;;;;;;5028807;28;20579;-66
2022/05/17 11:25:44;;;;;;;7.85;5.00;;;25.50;99.90;;;;;;5031110;28;20053;-69
2022/05/17 11:28:33;;;;;;;6.18;3.78;;;25.60;99.90;;;;;;5031261;28;20065;-67
2022/05/17 11:31:07;;;;;;;7.75;3.50;;;26.00;99.90;;;;;;5031586;28;20049;-65
2022/05/17 11:33:41;;;;;;;6.40;3.90;;;26.30;99.90;;;;;;4987949;28;20099;-66
2022/05/17 11:36:43;;;;;;;8.85;3.63;;;26.20;99.90;;;;;;5031907;28;20041;-65
2022/05/17 11:39:32;;;;;;;9.40;5.00;;;26.50;99.90;;;;;;4988028;28;20049;-66
2022/05/17 11:42:12;;;;;;;8.32;4.18;;;26.30;99.90;;;;;;5013341;28;20056;-66
2022/05/17 11:44:43;;;;;;;6.72;4.05;;;26.70;99.90;;;;;;5026542;28;20095;-68
2022/05/17 11:47:49;;;;;;;8.65;4.47;;;26.60;99.90;;;;;;5022851;28;20568;-65
2022/05/17 11:50:20;;;;;;;12.18;4.32;;;26.30;99.90;;;;;;5020919;28;20030;-66
2022/05/17 11:52:56;;;;;;;7.65;4.38;;;26.60;99.90;;;;;;5016438;28;20153;-65
2022/05/17 11:55:28;;;;;;;7.47;4.07;;;26.80;99.90;;;;;;5018917;28;20045;-65
2022/05/17 11:57:58;;;;;;;7.20;4.57;;;27.30;99.90;;;;;;5025613;28;20051;-68
2022/05/17 12:00:26;;;;;;;6.80;3.75;;;28.10;99.90;;;;;;5016713;28;20435;-66
2022/05/17 12:03:04;;;;;;;9.73;4.32;;;28.00;99.90;;;;;;5025564;28;20050;-66
2022/05/17 12:05:37;;;;;;;8.43;4.32;;;28.20;99.90;;;;;;5030452;28;20056;-67
2022/05/17 12:08:27;;;;;;;7.85;4.07;;;29.20;99.90;;;;;;5028247;28;20053;-66
2022/05/17 12:11:06;;;;;;;7.93;3.65;;;28.80;99.90;;;;;;5026725;28;20109;-65
2022/05/17 12:13:58;;;;;;;8.38;4.30;;;29.40;99.90;;;;;;5020229;28;20090;-66
2022/05/17 12:16:29;;;;;;;7.07;3.45;;;29.60;99.90;;;;;;5019362;28;20034;-69
2022/05/17 12:19:13;;;;;;;6.45;3.85;;;29.30;99.90;;;;;;5020091;28;20049;-67
2022/05/17 12:21:51;;;;;;;8.90;3.95;;;28.80;99.90;;;;;;5021547;28;20042;-67
2022/05/17 12:24:37;;;;;;;6.38;3.80;;;29.10;99.90;;;;;;5012490;28;20410;-68
2022/05/17 12:27:10;;;;;;;6.05;4.00;;;28.60;99.90;;;;;;5013045;28;20452;-67
2022/05/17 12:32:36;;;;;;;8.65;3.90;;;29.50;99.90;;;;;;5025752;28;20405;-66
2022/05/17 12:35:07;;;;;;;7.30;4.10;;;29.30;98.80;;;;;;5029715;28;20132;-68
2022/05/17 12:37:40;;;;;;;6.22;3.60;;;29.40;98.40;;;;;;5031484;28;20519;-66
2022/05/17 12:43:07;;;;;;;6.65;3.10;;;30.60;96.90;;;;;;5025691;28;20053;-67
2022/05/17 12:45:47;;;;;;;6.88;3.10;;;30.50;95.40;;;;;;5027348;28;20426;-67
2022/05/17 12:48:37;;;;;;;8.70;3.83;;;30.10;95.30;;;;;;5029449;28;20175;-68
2022/05/17 12:51:08;;;;;;;6.82;4.03;;;29.60;95.80;;;;;;5018551;28;20125;-66
2022/05/17 12:53:46;;;;;;;6.47;3.75;;;29.20;96.40;;;;;;5024350;28;20099;-68
2022/05/17 12:56:36;;;;;;;8.40;3.30;;;29.30;96.70;;;;;;5028263;28;20136;-67
2022/05/17 12:59:06;;;;;;;7.45;3.42;;;29.80;96.00;;;;;;5029579;28;20512;-67
2022/05/17 13:01:41;;;;;;;10.93;3.20;;;30.50;95.30;;;;;;5031691;28;20138;-66
2022/05/17 13:04:15;;;;;;;8.73;3.33;;;31.70;94.40;;;;;;5031623;28;20045;-67
2022/05/17 13:06:45;;;;;;;8.32;3.42;;;31.90;93.30;;;;;;5031632;28;20572;-66
2022/05/17 13:09:19;;;;;;;6.43;3.47;;;32.70;92.80;;;;;;5030467;28;20511;-67
2022/05/17 13:11:49;;;;;;;5.53;3.10;;;33.20;91.70;;;;;;5029695;28;20048;-67
2022/05/17 13:14:34;;;;;;;6.88;2.72;;;32.00;90.50;;;;;;5029144;28;20508;-67
2022/05/17 13:17:11;;;;;;;7.65;2.78;;;31.80;91.30;;;;;;5028511;28;20048;-67
2022/05/17 13:19:45;;;;;;;4.65;2.90;;;32.60;90.80;;;;;;5028948;28;20112;-68